Terminal Aerodrome Forecast
Issued by NWS Charleston, WV

Current Version | Previous Version | Text Only | Print | Product List | Glossary Off
Versions: 1 2 3 4 5 6 7 8 9 10 11 12 13 14 15 16 17 18 19 20 21 22 23 24

000
FTUS41 KRLX 232300
TAFHTS
TAF
KHTS 232322Z 2400/2424 VRB03KT 2SM -RA BR BKN035 OVC050
     FM240200 36006KT 3SM -SNRA BR BKN012 OVC035
     FM240600 34006KT 2SM -SN BR OVC006
     FM241000 32005KT 4SM -SN BR BKN010
     FM241300 31005KT 6SM BR BKN010
     FM241700 26008KT P6SM SCT060=

USA.gov is the U.S. government's official web portal to all federal, state and local government web resources and services.